Time;durP1;ratioP1;P1;durP2;ratioP2;P2;SDS_P1;SDS_P2;PMS_P1;PMS_P2;Temp;Humidity;BMP_temperature;BMP_pressure;BME280_temperature;BME280_humidity;BME280_pressure;Samples;Min_cycle;Max_cycle;Signal;HPM_P1;HPM_P2
2023/03/04 00:01:32;;;;;;;22.83;16.97;;;;;;;;;;5111541;28;20222;-78
2023/03/04 00:03:59;;;;;;;28.70;18.80;;;;;;;;;;5111356;28;20202;-77
2023/03/04 00:06:27;;;;;;;28.00;18.67;;;;;;;;;;5111456;28;20294;-78
2023/03/04 00:08:54;;;;;;;86.03;53.83;;;;;;;;;;5111239;28;20631;-78
2023/03/04 00:11:21;;;;;;;36.60;23.60;;;;;;;;;;5110961;28;20290;-78
2023/03/04 00:13:50;;;;;;;56.87;33.67;;;;;;;;;;5111289;28;20247;-78
2023/03/04 00:16:17;;;;;;;26.67;19.50;;;;;;;;;;5111104;28;20673;-78
2023/03/04 00:18:44;;;;;;;19.50;14.60;;;;;;;;;;5110966;28;20194;-79
2023/03/04 00:21:11;;;;;;;17.97;13.27;;;;;;;;;;5111115;28;20217;-78
2023/03/04 00:23:40;;;;;;;18.63;13.13;;;;;;;;;;5111445;28;20234;-78
2023/03/04 00:26:08;;;;;;;19.63;13.60;;;;;;;;;;5110828;28;20297;-78
2023/03/04 00:28:35;;;;;;;19.87;13.60;;;;;;;;;;5111034;28;20682;-77
2023/03/04 00:31:04;;;;;;;17.60;12.83;;;;;;;;;;5111041;28;20720;-77
2023/03/04 00:33:31;;;;;;;19.93;13.27;;;;;;;;;;5110835;28;20293;-78
2023/03/04 00:35:58;;;;;;;18.23;12.70;;;;;;;;;;5114377;28;20655;-77
2023/03/04 00:38:26;;;;;;;19.20;13.50;;;;;;;;;;5114772;28;20190;-78
2023/03/04 00:40:53;;;;;;;19.37;12.63;;;;;;;;;;5114085;28;20651;-78
2023/03/04 00:43:20;;;;;;;22.53;14.07;;;;;;;;;;5114580;28;20217;-78
2023/03/04 00:45:47;;;;;;;22.83;13.93;;;;;;;;;;5114569;28;20645;-77
2023/03/04 00:48:16;;;;;;;25.07;13.90;;;;;;;;;;5114800;28;20285;-77
2023/03/04 00:50:43;;;;;;;21.57;14.00;;;;;;;;;;5114474;28;20205;-78
2023/03/04 00:53:11;;;;;;;20.10;12.53;;;;;;;;;;5114556;28;20250;-78
2023/03/04 00:55:38;;;;;;;18.37;12.70;;;;;;;;;;5111779;27;20320;-77
2023/03/04 00:58:05;;;;;;;19.07;12.50;;;;;;;;;;5093889;28;20289;-77
2023/03/04 01:00:33;;;;;;;19.97;13.30;;;;;;;;;;5093786;28;20237;-78
2023/03/04 01:03:00;;;;;;;23.33;13.97;;;;;;;;;;5093346;28;20234;-78
2023/03/04 01:05:28;;;;;;;19.57;13.90;;;;;;;;;;5093712;28;20240;-78
2023/03/04 01:07:55;;;;;;;20.67;13.17;;;;;;;;;;5093582;28;20218;-78
2023/03/04 01:10:23;;;;;;;21.90;13.93;;;;;;;;;;5108038;28;20236;-77
2023/03/04 01:12:50;;;;;;;21.50;14.03;;;;;;;;;;5114163;28;20292;-76
2023/03/04 01:15:17;;;;;;;23.73;14.20;;;;;;;;;;5114018;28;20255;-77
2023/03/04 01:17:44;;;;;;;25.93;14.67;;;;;;;;;;5113875;28;20225;-79
2023/03/04 01:20:12;;;;;;;21.67;14.20;;;;;;;;;;5114268;28;20243;-77
2023/03/04 01:22:40;;;;;;;21.93;14.87;;;;;;;;;;5113475;28;20221;-78
2023/03/04 01:25:08;;;;;;;24.07;14.17;;;;;;;;;;5113975;28;20297;-78
2023/03/04 01:27:35;;;;;;;21.87;14.53;;;;;;;;;;5113912;28;20285;-78
2023/03/04 01:30:02;;;;;;;23.27;14.30;;;;;;;;;;5113722;28;20221;-78
2023/03/04 01:32:30;;;;;;;20.67;14.23;;;;;;;;;;5113201;28;20280;-78
2023/03/04 01:34:57;;;;;;;23.27;14.33;;;;;;;;;;5113562;28;20690;-78
2023/03/04 01:37:24;;;;;;;24.63;15.13;;;;;;;;;;5113412;28;20253;-78
2023/03/04 01:39:53;;;;;;;27.27;14.90;;;;;;;;;;5113639;28;20309;-78
2023/03/04 01:42:21;;;;;;;23.63;15.47;;;;;;;;;;5113632;28;20251;-78
2023/03/04 01:44:49;;;;;;;25.30;15.43;;;;;;;;;;5113047;28;20275;-77
2023/03/04 01:47:16;;;;;;;24.03;15.03;;;;;;;;;;5112875;28;20733;-77
2023/03/04 01:49:44;;;;;;;24.90;14.50;;;;;;;;;;5113488;28;20285;-77
2023/03/04 01:52:12;;;;;;;26.43;15.23;;;;;;;;;;5112989;28;20194;-77
2023/03/04 01:54:40;;;;;;;24.57;15.20;;;;;;;;;;5113382;28;20204;-78
2023/03/04 01:57:16;;;;;;;22.93;14.57;;;;;;;;;;5113424;28;20229;-77
2023/03/04 01:59:43;;;;;;;25.50;15.27;;;;;;;;;;5113194;28;20568;-77
2023/03/04 02:02:10;;;;;;;24.93;15.63;;;;;;;;;;5113307;28;20225;-77
2023/03/04 02:04:37;;;;;;;22.13;14.33;;;;;;;;;;5112812;28;20224;-77
2023/03/04 02:07:05;;;;;;;25.60;14.67;;;;;;;;;;5112644;28;20228;-77
2023/03/04 02:09:33;;;;;;;26.20;15.47;;;;;;;;;;5113074;28;20220;-78
2023/03/04 02:12:00;;;;;;;23.07;14.77;;;;;;;;;;5112860;28;20225;-77
2023/03/04 02:14:29;;;;;;;24.67;14.83;;;;;;;;;;5112758;28;20313;-78
2023/03/04 02:16:56;;;;;;;27.03;15.13;;;;;;;;;;5112694;28;20316;-78
2023/03/04 02:19:27;;;;;;;23.90;14.67;;;;;;;;;;5112531;28;20290;-77
2023/03/04 02:21:54;;;;;;;24.70;15.40;;;;;;;;;;5112485;28;20616;-77
2023/03/04 02:24:24;;;;;;;24.20;14.90;;;;;;;;;;5113296;28;20297;-77
2023/03/04 02:26:53;;;;;;;24.10;14.87;;;;;;;;;;5112649;28;20284;-77
2023/03/04 02:29:20;;;;;;;23.40;15.33;;;;;;;;;;5112435;28;20239;-77
2023/03/04 02:31:49;;;;;;;25.97;16.03;;;;;;;;;;5112943;28;20402;-77
2023/03/04 02:34:17;;;;;;;26.20;15.63;;;;;;;;;;5112533;28;20614;-77
2023/03/04 02:36:45;;;;;;;27.57;15.73;;;;;;;;;;5110320;27;20791;-77
2023/03/04 02:39:13;;;;;;;23.23;15.37;;;;;;;;;;5092060;28;20206;-77
2023/03/04 02:41:40;;;;;;;26.73;15.50;;;;;;;;;;5091960;28;20289;-77
2023/03/04 02:44:16;;;;;;;26.03;15.57;;;;;;;;;;5091841;28;20321;-77
2023/03/04 02:46:43;;;;;;;22.67;15.07;;;;;;;;;;5092322;28;20222;-76
2023/03/04 02:49:11;;;;;;;25.63;15.90;;;;;;;;;;5091805;28;20194;-78
2023/03/04 02:51:38;;;;;;;25.77;15.40;;;;;;;;;;5106385;28;20251;-77
2023/03/04 02:54:05;;;;;;;23.20;15.30;;;;;;;;;;5111582;28;20809;-77
2023/03/04 02:56:32;;;;;;;24.97;15.50;;;;;;;;;;5112047;28;20253;-78
2023/03/04 02:59:01;;;;;;;25.30;15.47;;;;;;;;;;5112142;28;20284;-78
2023/03/04 03:01:30;;;;;;;23.23;14.83;;;;;;;;;;5112009;28;20458;-77
2023/03/04 03:03:57;;;;;;;25.67;14.83;;;;;;;;;;5112226;28;20196;-77
2023/03/04 03:06:24;;;;;;;22.23;14.93;;;;;;;;;;5111622;28;20257;-78
2023/03/04 03:08:52;;;;;;;22.33;14.50;;;;;;;;;;5112109;28;20280;-77
2023/03/04 03:11:19;;;;;;;22.20;15.10;;;;;;;;;;5111826;28;20284;-78
2023/03/04 03:13:46;;;;;;;23.53;14.17;;;;;;;;;;5111724;28;20741;-78
2023/03/04 03:16:13;;;;;;;24.50;15.17;;;;;;;;;;5111829;28;20594;-77
2023/03/04 03:18:42;;;;;;;22.97;14.47;;;;;;;;;;5111378;28;20279;-77
2023/03/04 03:21:09;;;;;;;23.77;14.63;;;;;;;;;;5111779;28;20295;-77
2023/03/04 03:23:36;;;;;;;22.17;14.00;;;;;;;;;;5111356;28;20632;-78
2023/03/04 03:26:03;;;;;;;24.70;14.90;;;;;;;;;;5111853;28;20255;-77
2023/03/04 03:28:30;;;;;;;24.97;16.23;;;;;;;;;;5111919;28;20225;-77
2023/03/04 03:30:58;;;;;;;25.43;15.63;;;;;;;;;;5111606;28;20284;-78
2023/03/04 03:33:25;;;;;;;25.43;15.37;;;;;;;;;;5111495;28;20318;-77
2023/03/04 03:35:54;;;;;;;28.10;15.97;;;;;;;;;;5111446;28;20287;-78
2023/03/04 03:38:21;;;;;;;26.67;15.77;;;;;;;;;;5111934;28;20319;-77
2023/03/04 03:40:48;;;;;;;28.30;14.90;;;;;;;;;;5111638;28;20223;-78
2023/03/04 03:43:15;;;;;;;27.90;16.60;;;;;;;;;;5111632;28;20740;-77
2023/03/04 03:45:42;;;;;;;25.27;15.70;;;;;;;;;;5111404;28;20260;-77
2023/03/04 03:48:10;;;;;;;29.83;16.27;;;;;;;;;;5111437;28;20232;-77
2023/03/04 03:50:37;;;;;;;27.03;16.63;;;;;;;;;;5111282;28;20231;-77
2023/03/04 03:53:06;;;;;;;29.57;16.53;;;;;;;;;;5111300;28;20227;-78
2023/03/04 03:55:33;;;;;;;30.23;16.97;;;;;;;;;;5111355;28;20231;-77
2023/03/04 03:58:01;;;;;;;31.00;17.80;;;;;;;;;;5111712;28;20314;-77
2023/03/04 04:00:28;;;;;;;35.43;18.57;;;;;;;;;;5111033;28;20226;-76
2023/03/04 04:02:56;;;;;;;33.83;17.90;;;;;;;;;;5111078;28;20294;-77
2023/03/04 04:05:23;;;;;;;32.00;17.40;;;;;;;;;;5111027;28;20614;-77
2023/03/04 04:07:50;;;;;;;32.80;18.50;;;;;;;;;;5111825;28;20234;-77
2023/03/04 04:10:19;;;;;;;33.50;19.30;;;;;;;;;;5113996;28;20557;-77
2023/03/04 04:12:46;;;;;;;30.33;18.07;;;;;;;;;;5115040;28;20295;-77
2023/03/04 04:15:13;;;;;;;31.70;18.60;;;;;;;;;;5114890;28;20224;-77
2023/03/04 04:17:41;;;;;;;31.67;18.37;;;;;;;;;;5114699;28;20331;-76
2023/03/04 04:20:08;;;;;;;34.47;18.93;;;;;;;;;;5114863;28;20635;-76
2023/03/04 04:22:36;;;;;;;31.97;19.23;;;;;;;;;;5115218;28;20278;-76
2023/03/04 04:25:03;;;;;;;31.10;18.37;;;;;;;;;;5114831;28;20293;-76
2023/03/04 04:27:32;;;;;;;32.47;18.47;;;;;;;;;;5115088;28;20353;-77
2023/03/04 04:29:59;;;;;;;32.27;19.60;;;;;;;;;;5114676;28;20656;-77
2023/03/04 04:32:26;;;;;;;34.77;20.07;;;;;;;;;;5114536;28;20227;-77
2023/03/04 04:34:53;;;;;;;32.40;19.27;;;;;;;;;;5114822;28;20223;-77
2023/03/04 04:37:21;;;;;;;34.83;19.73;;;;;;;;;;5114193;28;20664;-77
2023/03/04 04:39:48;;;;;;;34.67;20.00;;;;;;;;;;5114815;28;20251;-77
2023/03/04 04:42:15;;;;;;;31.47;19.33;;;;;;;;;;5114657;28;20228;-77
2023/03/04 04:44:44;;;;;;;32.73;19.23;;;;;;;;;;5114416;28;20739;-76
2023/03/04 04:47:11;;;;;;;33.47;19.83;;;;;;;;;;5114329;28;20296;-77
2023/03/04 04:49:38;;;;;;;34.37;20.33;;;;;;;;;;5114769;28;20287;-77
2023/03/04 04:52:05;;;;;;;35.10;20.30;;;;;;;;;;5114599;28;20216;-77
2023/03/04 04:54:32;;;;;;;38.07;20.17;;;;;;;;;;5114486;28;20196;-77
2023/03/04 04:57:00;;;;;;;34.63;19.90;;;;;;;;;;5113874;28;20819;-78
2023/03/04 04:59:27;;;;;;;35.10;19.23;;;;;;;;;;5114789;28;20228;-76
2023/03/04 05:01:55;;;;;;;32.77;19.80;;;;;;;;;;5114159;28;20280;-78
2023/03/04 05:04:23;;;;;;;34.57;19.83;;;;;;;;;;5093401;28;20227;-77
2023/03/04 05:06:50;;;;;;;33.17;20.47;;;;;;;;;;5093854;28;20239;-76
2023/03/04 05:09:18;;;;;;;36.27;20.80;;;;;;;;;;5093832;28;20624;-78
2023/03/04 05:11:45;;;;;;;32.27;20.80;;;;;;;;;;5096879;28;20197;-77
2023/03/04 05:14:12;;;;;;;32.93;19.00;;;;;;;;;;5114495;28;20234;-76
2023/03/04 05:16:39;;;;;;;32.47;19.10;;;;;;;;;;5113818;28;20289;-78
2023/03/04 05:19:08;;;;;;;36.47;19.90;;;;;;;;;;5114288;28;20278;-77
2023/03/04 05:21:35;;;;;;;34.27;20.53;;;;;;;;;;5112710;28;20835;-76
2023/03/04 05:24:02;;;;;;;39.20;20.57;;;;;;;;;;5094758;28;20244;-77
2023/03/04 05:26:30;;;;;;;36.40;21.30;;;;;;;;;;5093710;28;20302;-77
2023/03/04 05:28:57;;;;;;;35.40;21.03;;;;;;;;;;5093450;28;20658;-77
2023/03/04 05:31:24;;;;;;;38.53;20.30;;;;;;;;;;5092914;28;20232;-77
2023/03/04 05:33:51;;;;;;;36.47;21.43;;;;;;;;;;5093203;28;20622;-77
2023/03/04 05:36:21;;;;;;;35.60;20.33;;;;;;;;;;5093297;28;20252;-77
2023/03/04 05:38:49;;;;;;;36.77;22.20;;;;;;;;;;5093080;28;20276;-76
2023/03/04 05:41:17;;;;;;;38.57;21.50;;;;;;;;;;5093026;28;20197;-77
2023/03/04 05:43:44;;;;;;;37.57;22.03;;;;;;;;;;5093282;28;20257;-78
2023/03/04 05:46:14;;;;;;;37.23;21.47;;;;;;;;;;5092973;28;20328;-77
2023/03/04 05:48:41;;;;;;;34.50;21.00;;;;;;;;;;5093031;28;20307;-78
2023/03/04 05:51:08;;;;;;;37.73;22.03;;;;;;;;;;5092712;28;20225;-77
2023/03/04 05:53:38;;;;;;;38.67;21.83;;;;;;;;;;5093299;28;20281;-77
2023/03/04 05:56:07;;;;;;;38.20;21.47;;;;;;;;;;5092789;28;20200;-77
2023/03/04 05:58:34;;;;;;;38.43;22.33;;;;;;;;;;5092429;28;20258;-77
2023/03/04 06:01:02;;;;;;;38.07;21.67;;;;;;;;;;5092953;28;20237;-77
2023/03/04 06:03:29;;;;;;;36.80;21.60;;;;;;;;;;5092578;28;20670;-77
2023/03/04 06:05:56;;;;;;;38.30;21.70;;;;;;;;;;5092596;28;20192;-77
2023/03/04 06:08:23;;;;;;;36.70;20.63;;;;;;;;;;5092579;28;20200;-78
2023/03/04 06:10:54;;;;;;;36.30;20.87;;;;;;;;;;5093063;28;20277;-76
2023/03/04 06:13:21;;;;;;;36.10;20.47;;;;;;;;;;5108462;28;20634;-77
2023/03/04 06:15:48;;;;;;;35.43;20.50;;;;;;;;;;5112761;28;20223;-78
2023/03/04 06:18:15;;;;;;;38.43;20.50;;;;;;;;;;5112612;28;20267;-77
2023/03/04 06:20:44;;;;;;;37.77;20.27;;;;;;;;;;5112733;28;20286;-77
2023/03/04 06:23:11;;;;;;;34.73;20.03;;;;;;;;;;5113087;28;20234;-77
2023/03/04 06:25:38;;;;;;;38.40;21.07;;;;;;;;;;5112580;28;20748;-77
2023/03/04 06:28:07;;;;;;;34.17;19.97;;;;;;;;;;5112334;28;20254;-77
2023/03/04 06:30:34;;;;;;;36.47;19.70;;;;;;;;;;5112512;28;20631;-77
2023/03/04 06:33:01;;;;;;;37.43;20.73;;;;;;;;;;5112503;28;20318;-77
2023/03/04 06:35:28;;;;;;;32.93;19.37;;;;;;;;;;5112440;28;20281;-77
2023/03/04 06:37:55;;;;;;;34.53;19.87;;;;;;;;;;5112413;28;20669;-77
2023/03/04 06:40:23;;;;;;;32.20;19.60;;;;;;;;;;5112829;28;20233;-77
2023/03/04 06:42:50;;;;;;;33.23;19.70;;;;;;;;;;5112396;28;20222;-77
2023/03/04 06:45:18;;;;;;;30.17;17.90;;;;;;;;;;5112071;28;20264;-77
2023/03/04 06:47:46;;;;;;;33.20;18.77;;;;;;;;;;5112532;28;20222;-77
2023/03/04 06:50:13;;;;;;;32.10;19.13;;;;;;;;;;5112701;28;20257;-77
2023/03/04 06:52:41;;;;;;;31.63;19.23;;;;;;;;;;5112198;28;20238;-77
2023/03/04 06:55:08;;;;;;;31.43;18.53;;;;;;;;;;5112364;28;20625;-76
2023/03/04 06:57:36;;;;;;;37.73;18.73;;;;;;;;;;5111834;28;20259;-78
2023/03/04 07:00:03;;;;;;;32.27;18.10;;;;;;;;;;5112172;28;20211;-77
2023/03/04 07:02:32;;;;;;;28.77;18.30;;;;;;;;;;5111951;28;20312;-77
2023/03/04 07:04:59;;;;;;;32.50;19.43;;;;;;;;;;5111897;28;20292;-77
2023/03/04 07:07:26;;;;;;;29.43;19.77;;;;;;;;;;5112027;28;20662;-77
2023/03/04 07:09:54;;;;;;;30.87;19.20;;;;;;;;;;5111654;28;20219;-77
2023/03/04 07:12:21;;;;;;;27.10;17.60;;;;;;;;;;5111491;28;20285;-77
2023/03/04 07:14:48;;;;;;;26.50;17.63;;;;;;;;;;5111763;28;20290;-76
2023/03/04 07:17:15;;;;;;;28.17;17.17;;;;;;;;;;5110856;28;20291;-77
2023/03/04 07:19:44;;;;;;;23.97;16.50;;;;;;;;;;5111827;28;20199;-77
2023/03/04 07:22:11;;;;;;;22.27;15.80;;;;;;;;;;5111507;28;20194;-76
2023/03/04 07:24:38;;;;;;;23.43;15.77;;;;;;;;;;5112170;28;20223;-77
2023/03/04 07:27:06;;;;;;;22.03;15.70;;;;;;;;;;5111037;28;20288;-77
2023/03/04 07:29:33;;;;;;;22.33;15.37;;;;;;;;;;5111761;28;20205;-78
2023/03/04 07:32:00;;;;;;;20.70;14.50;;;;;;;;;;5111590;28;20192;-77
2023/03/04 07:34:28;;;;;;;19.93;14.00;;;;;;;;;;5111227;28;20225;-77
2023/03/04 07:36:56;;;;;;;21.53;13.43;;;;;;;;;;5110911;28;20222;-77
2023/03/04 07:39:23;;;;;;;16.77;13.10;;;;;;;;;;5111052;28;20344;-76
2023/03/04 07:41:51;;;;;;;16.50;12.90;;;;;;;;;;5110293;28;20222;-77
2023/03/04 07:44:18;;;;;;;15.17;12.37;;;;;;;;;;5112084;28;20220;-77
2023/03/04 07:46:45;;;;;;;15.73;11.97;;;;;;;;;;5115430;28;20212;-78
2023/03/04 07:49:13;;;;;;;15.17;11.77;;;;;;;;;;5114752;28;20668;-76
2023/03/04 07:51:40;;;;;;;15.30;11.60;;;;;;;;;;5115304;28;20197;-75
2023/03/04 07:54:10;;;;;;;14.63;11.47;;;;;;;;;;5114518;28;20281;-75
2023/03/04 07:56:37;;;;;;;13.30;11.23;;;;;;;;;;5113533;28;20228;-76
2023/03/04 07:59:04;;;;;;;12.67;10.60;;;;;;;;;;5115429;28;20263;-76
2023/03/04 08:01:32;;;;;;;12.53;11.20;;;;;;;;;;5115195;28;20232;-76
2023/03/04 08:04:00;;;;;;;10.83;9.43;;;;;;;;;;5115143;28;20221;-77
2023/03/04 08:06:27;;;;;;;11.50;9.40;;;;;;;;;;5113489;28;20753;-76
2023/03/04 08:08:58;;;;;;;11.00;9.10;;;;;;;;;;5114897;28;20247;-76
2023/03/04 08:11:26;;;;;;;12.57;8.73;;;;;;;;;;5113722;28;20221;-77
2023/03/04 08:13:54;;;;;;;9.43;8.30;;;;;;;;;;5113920;28;21414;-77
2023/03/04 08:16:22;;;;;;;9.10;8.20;;;;;;;;;;5114662;28;20292;-77
2023/03/04 08:18:51;;;;;;;10.17;8.00;;;;;;;;;;5114141;28;20248;-75
2023/03/04 08:21:19;;;;;;;9.63;7.70;;;;;;;;;;5112980;28;20624;-76
2023/03/04 08:23:46;;;;;;;9.87;8.00;;;;;;;;;;5111975;28;20236;-77
2023/03/04 08:26:15;;;;;;;10.17;9.07;;;;;;;;;;5113661;27;20197;-77
2023/03/04 08:28:44;;;;;;;8.37;7.53;;;;;;;;;;5113145;28;20225;-77
2023/03/04 08:31:12;;;;;;;9.87;8.23;;;;;;;;;;5113860;28;20670;-77
2023/03/04 08:33:39;;;;;;;9.40;7.43;;;;;;;;;;5105498;28;20202;-78
2023/03/04 08:36:07;;;;;;;7.73;6.97;;;;;;;;;;5106255;28;20234;-76
2023/03/04 08:38:34;;;;;;;9.03;7.17;;;;;;;;;;5111621;28;20312;-77
2023/03/04 08:41:03;;;;;;;7.27;6.10;;;;;;;;;;5114428;28;20709;-77
2023/03/04 08:43:30;;;;;;;7.57;6.88;;;;;;;;;;5114337;28;20669;-77
2023/03/04 08:45:58;;;;;;;9.25;6.82;;;;;;;;;;5113665;28;20664;-77
2023/03/04 08:48:25;;;;;;;9.25;6.90;;;;;;;;;;5114060;28;20692;-77
2023/03/04 08:50:53;;;;;;;6.38;5.78;;;;;;;;;;5111851;28;20198;-76
2023/03/04 08:53:21;;;;;;;6.32;5.43;;;;;;;;;;5112412;27;20222;-75
2023/03/04 08:55:48;;;;;;;7.67;5.20;;;;;;;;;;5107595;27;20400;-75
2023/03/04 08:58:15;;;;;;;6.80;5.03;;;;;;;;;;5111620;28;20324;-77
2023/03/04 09:00:44;;;;;;;7.10;5.33;;;;;;;;;;5102900;28;20702;-79
2023/03/04 09:03:12;;;;;;;8.90;5.67;;;;;;;;;;5112635;28;20285;-78
2023/03/04 09:05:40;;;;;;;9.20;5.43;;;;;;;;;;5114318;28;20201;-79
2023/03/04 09:08:07;;;;;;;8.07;5.50;;;;;;;;;;5113779;28;20229;-78
2023/03/04 09:10:34;;;;;;;7.37;5.17;;;;;;;;;;5114055;28;20288;-79
2023/03/04 09:13:01;;;;;;;7.10;5.50;;;;;;;;;;5114059;28;20293;-78
2023/03/04 09:15:29;;;;;;;6.60;5.40;;;;;;;;;;5114618;27;20265;-78
2023/03/04 09:17:56;;;;;;;7.97;5.13;;;;;;;;;;5113966;28;20289;-78
2023/03/04 09:20:24;;;;;;;7.50;5.33;;;;;;;;;;5114220;28;20690;-78
2023/03/04 09:22:52;;;;;;;6.90;5.57;;;;;;;;;;5113570;28;20292;-78
2023/03/04 09:25:19;;;;;;;8.43;5.77;;;;;;;;;;5114106;28;20300;-78
2023/03/04 09:27:46;;;;;;;7.43;5.97;;;;;;;;;;5114139;28;20616;-78
2023/03/04 09:30:14;;;;;;;10.23;6.30;;;;;;;;;;5113724;28;20229;-78
2023/03/04 09:32:41;;;;;;;8.37;6.33;;;;;;;;;;5113940;28;20225;-79
2023/03/04 09:35:09;;;;;;;8.70;6.40;;;;;;;;;;5113779;28;20636;-78
2023/03/04 09:37:38;;;;;;;10.67;6.57;;;;;;;;;;5113910;28;20198;-78
2023/03/04 09:40:07;;;;;;;9.90;6.87;;;;;;;;;;5113581;28;20237;-79
2023/03/04 09:42:35;;;;;;;12.67;6.70;;;;;;;;;;5113548;28;20790;-78
2023/03/04 09:45:03;;;;;;;10.50;6.67;;;;;;;;;;5113062;28;20721;-79
2023/03/04 09:47:30;;;;;;;11.23;6.83;;;;;;;;;;5113595;28;20221;-78
2023/03/04 09:49:59;;;;;;;10.83;6.87;;;;;;;;;;5113268;28;20678;-78
2023/03/04 09:52:31;;;;;;;10.93;6.73;;;;;;;;;;5113035;28;20281;-78
2023/03/04 09:55:06;;;;;;;11.30;6.40;;;;;;;;;;5113229;28;20277;-78
2023/03/04 09:57:44;;;;;;;13.03;6.50;;;;;;;;;;5113843;28;20197;-78
2023/03/04 10:00:18;;;;;;;10.33;6.60;;;;;;;;;;5113575;28;20221;-78
2023/03/04 10:02:49;;;;;;;11.47;6.40;;;;;;;;;;5113179;28;20556;-78
2023/03/04 10:05:19;;;;;;;11.87;6.27;;;;;;;;;;5112865;27;20281;-77
2023/03/04 10:07:49;;;;;;;10.53;6.60;;;;;;;;;;5112575;28;20225;-78
2023/03/04 10:10:19;;;;;;;9.13;5.67;;;;;;;;;;5113343;28;20256;-78
2023/03/04 10:12:47;;;;;;;10.07;6.50;;;;;;;;;;5113227;28;20228;-79
2023/03/04 10:15:22;;;;;;;10.90;5.40;;;;;;;;;;5112831;28;20282;-77
2023/03/04 10:17:53;;;;;;;10.57;5.53;;;;;;;;;;5112651;28;20232;-78
2023/03/04 10:20:22;;;;;;;10.27;5.60;;;;;;;;;;5112265;28;20600;-78
2023/03/04 10:22:50;;;;;;;10.63;6.07;;;;;;;;;;5112709;28;20709;-79
2023/03/04 10:25:23;;;;;;;9.70;5.70;;;;;;;;;;5111949;28;20197;-79
2023/03/04 10:27:52;;;;;;;14.37;5.80;;;;;;;;;;5110464;28;20202;-78
2023/03/04 10:30:24;;;;;;;12.30;6.10;;;;;;;;;;5110279;28;20213;-79
2023/03/04 10:32:51;;;;;;;9.60;6.10;;;;;;;;;;5111752;28;20198;-78
2023/03/04 10:35:19;;;;;;;11.43;6.87;;;;;;;;;;5110156;28;20826;-79
2023/03/04 10:37:47;;;;;;;8.57;6.20;;;;;;;;;;5110010;28;20296;-79
2023/03/04 10:40:25;;;;;;;9.80;6.00;;;;;;;;;;5111415;28;20577;-80
2023/03/04 10:42:53;;;;;;;9.13;6.10;;;;;;;;;;5109689;28;20192;-79
2023/03/04 10:45:21;;;;;;;9.67;5.97;;;;;;;;;;5111311;28;20225;-80
2023/03/04 10:47:53;;;;;;;10.57;6.53;;;;;;;;;;5111374;28;20588;-79
2023/03/04 10:50:23;;;;;;;8.60;6.03;;;;;;;;;;5110781;28;20301;-79
2023/03/04 10:52:52;;;;;;;13.30;6.27;;;;;;;;;;5112226;28;20205;-80
2023/03/04 10:55:20;;;;;;;10.47;5.77;;;;;;;;;;5108053;28;20198;-80
2023/03/04 10:57:52;;;;;;;13.67;6.20;;;;;;;;;;5110949;28;20255;-79
2023/03/04 11:00:25;;;;;;;11.13;6.30;;;;;;;;;;5111196;27;20253;-80
2023/03/04 11:02:53;;;;;;;10.27;6.93;;;;;;;;;;5109630;28;20741;-79
2023/03/04 11:05:22;;;;;;;13.77;6.53;;;;;;;;;;5111315;28;20198;-80
2023/03/04 11:07:50;;;;;;;10.30;6.50;;;;;;;;;;5109444;28;20276;-81
2023/03/04 11:10:19;;;;;;;13.80;6.60;;;;;;;;;;5114418;27;20685;-78
2023/03/04 11:12:51;;;;;;;12.50;6.20;;;;;;;;;;5108084;28;20288;-78
2023/03/04 11:15:19;;;;;;;10.93;6.43;;;;;;;;;;5111271;28;20304;-79
2023/03/04 11:17:49;;;;;;;10.47;6.33;;;;;;;;;;5108423;28;20196;-79
2023/03/04 11:20:18;;;;;;;9.00;6.00;;;;;;;;;;5110314;28;20678;-81
2023/03/04 11:22:47;;;;;;;12.97;6.60;;;;;;;;;;5111354;28;20280;-80
2023/03/04 11:25:20;;;;;;;11.20;5.77;;;;;;;;;;5111064;28;20600;-82
2023/03/04 11:27:49;;;;;;;11.93;6.00;;;;;;;;;;5109129;28;20198;-81
2023/03/04 11:30:43;;;;;;;9.97;6.27;;;;;;;;;;5111180;28;20274;-81
2023/03/04 11:33:16;;;;;;;9.10;5.83;;;;;;;;;;5047508;28;20446;-79
2023/03/04 11:35:46;;;;;;;11.37;6.40;;;;;;;;;;5042571;28;20307;-79
2023/03/04 11:38:17;;;;;;;11.10;5.97;;;;;;;;;;5030215;28;20239;-79
2023/03/04 11:40:46;;;;;;;11.30;6.00;;;;;;;;;;5046858;28;20238;-80
2023/03/04 11:43:14;;;;;;;9.63;6.07;;;;;;;;;;5047314;28;20290;-78
2023/03/04 11:45:53;;;;;;;10.40;6.13;;;;;;;;;;5048305;28;20236;-79
2023/03/04 11:48:27;;;;;;;9.73;6.53;;;;;;;;;;5046816;28;20746;-79
2023/03/04 11:50:58;;;;;;;9.87;6.53;;;;;;;;;;5048282;28;20287;-79
2023/03/04 11:53:32;;;;;;;10.60;6.47;;;;;;;;;;5041567;28;20279;-79
2023/03/04 11:56:13;;;;;;;10.47;6.60;;;;;;;;;;5016697;28;20214;-79
2023/03/04 11:58:58;;;;;;;10.43;6.63;;;;;;;;;;5048114;28;20199;-79
2023/03/04 12:01:28;;;;;;;14.37;7.07;;;;;;;;;;5036770;28;20211;-79
2023/03/04 12:04:03;;;;;;;11.83;6.40;;;;;;;;;;5047966;28;20668;-79
2023/03/04 12:06:36;;;;;;;8.43;5.77;;;;;;;;;;5035340;28;20680;-78
2023/03/04 12:09:19;;;;;;;11.90;6.23;;;;;;;;;;5071666;28;20205;-79
2023/03/04 12:11:50;;;;;;;11.17;5.77;;;;;;;;;;5110020;28;20200;-81
2023/03/04 12:14:21;;;;;;;9.40;5.70;;;;;;;;;;5110587;28;20229;-76
2023/03/04 12:17:09;;;;;;;13.07;6.00;;;;;;;;;;5116348;28;20197;-78
2023/03/04 12:19:42;;;;;;;11.27;5.17;;;;;;;;;;5107447;28;20324;-79
2023/03/04 12:22:16;;;;;;;11.57;5.10;;;;;;;;;;5102859;28;20198;-78
2023/03/04 12:24:51;;;;;;;10.37;5.50;;;;;;;;;;5106610;28;20825;-78
2023/03/04 12:27:23;;;;;;;9.57;4.73;;;;;;;;;;5099428;28;20625;-77
2023/03/04 12:29:54;;;;;;;8.03;4.30;;;;;;;;;;5106524;28;20198;-77
2023/03/04 12:32:27;;;;;;;9.87;5.30;;;;;;;;;;5121318;27;20217;-79
2023/03/04 12:35:05;;;;;;;8.00;4.93;;;;;;;;;;5113566;27;20297;-78
2023/03/04 12:37:42;;;;;;;9.20;5.10;;;;;;;;;;5109442;27;20250;-78
2023/03/04 12:40:27;;;;;;;7.03;4.30;;;;;;;;;;5120709;27;20250;-78
2023/03/04 12:43:12;;;;;;;10.97;4.80;;;;;;;;;;5121384;27;20600;-79
2023/03/04 12:45:42;;;;;;;11.33;5.13;;;;;;;;;;5103582;28;20260;-78
2023/03/04 12:48:14;;;;;;;8.20;4.30;;;;;;;;;;5114863;27;20606;-78
2023/03/04 12:50:46;;;;;;;9.17;4.87;;;;;;;;;;5103619;27;20289;-78
2023/03/04 12:53:19;;;;;;;9.30;5.13;;;;;;;;;;5113277;27;20233;-80
2023/03/04 12:55:46;;;;;;;7.90;4.90;;;;;;;;;;5116669;27;20241;-79
2023/03/04 12:58:16;;;;;;;10.87;5.33;;;;;;;;;;5118609;27;20628;-78
2023/03/04 13:00:47;;;;;;;11.93;4.77;;;;;;;;;;5123248;27;20264;-77
2023/03/04 13:03:18;;;;;;;10.20;4.87;;;;;;;;;;5126831;27;20193;-76
2023/03/04 13:05:57;;;;;;;9.37;5.17;;;;;;;;;;5116724;27;20221;-79
2023/03/04 13:08:30;;;;;;;9.13;4.83;;;;;;;;;;5120065;27;20717;-74
2023/03/04 13:11:01;;;;;;;10.47;4.60;;;;;;;;;;5123531;27;20222;-76
2023/03/04 13:13:36;;;;;;;10.03;5.27;;;;;;;;;;5121518;27;20221;-77
2023/03/04 13:16:04;;;;;;;9.10;5.50;;;;;;;;;;5118507;27;20235;-82
2023/03/04 13:18:32;;;;;;;11.17;5.13;;;;;;;;;;5115384;27;20198;-79
2023/03/04 13:21:14;;;;;;;12.17;4.73;;;;;;;;;;5120478;27;20231;-79
2023/03/04 13:23:42;;;;;;;12.20;8.33;;;;;;;;;;5118120;27;20242;-80
2023/03/04 13:26:17;;;;;;;62.30;43.73;;;;;;;;;;5113288;27;20197;-80
2023/03/04 13:28:45;;;;;;;56.00;33.37;;;;;;;;;;5113324;28;20191;-81
2023/03/04 13:31:15;;;;;;;12.87;8.30;;;;;;;;;;5113580;28;20634;-81
2023/03/04 13:34:04;;;;;;;15.80;10.17;;;;;;;;;;5111589;28;20193;-80
2023/03/04 13:37:03;;;;;;;19.67;13.50;;;;;;;;;;5107969;28;20254;-79
2023/03/04 13:39:36;;;;;;;13.37;9.57;;;;;;;;;;5111826;28;20572;-81
2023/03/04 13:42:21;;;;;;;11.90;7.20;;;;;;;;;;5111029;28;20225;-81
2023/03/04 13:44:59;;;;;;;20.23;15.40;;;;;;;;;;5109972;28;20236;-81
2023/03/04 13:47:30;;;;;;;10.63;5.70;;;;;;;;;;5100893;28;20202;-80
2023/03/04 13:50:12;;;;;;;9.87;7.87;;;;;;;;;;5113199;28;20617;-79
2023/03/04 13:52:43;;;;;;;32.70;22.30;;;;;;;;;;5109648;27;20217;-79
2023/03/04 13:55:29;;;;;;;45.73;28.80;;;;;;;;;;5112751;27;20228;-79
2023/03/04 13:57:57;;;;;;;28.03;16.77;;;;;;;;;;5112003;28;20326;-79
2023/03/04 14:00:25;;;;;;;63.70;36.40;;;;;;;;;;5112442;28;20245;-77
2023/03/04 14:02:52;;;;;;;95.60;57.77;;;;;;;;;;5112914;28;20232;-78
2023/03/04 14:05:19;;;;;;;70.27;43.83;;;;;;;;;;5113129;28;20225;-76
2023/03/04 14:07:47;;;;;;;14.57;10.90;;;;;;;;;;5112698;28;20225;-77
2023/03/04 14:10:23;;;;;;;18.30;13.73;;;;;;;;;;5113094;28;20289;-76
2023/03/04 14:12:51;;;;;;;31.40;14.27;;;;;;;;;;5112751;28;20201;-77
2023/03/04 14:15:22;;;;;;;35.57;24.83;;;;;;;;;;5112961;28;20221;-75
2023/03/04 14:17:51;;;;;;;22.17;11.20;;;;;;;;;;5112367;28;20753;-75
2023/03/04 14:20:22;;;;;;;20.43;13.77;;;;;;;;;;5105764;28;20330;-77
2023/03/04 14:22:49;;;;;;;44.90;32.57;;;;;;;;;;5111288;27;20326;-76
2023/03/04 14:25:21;;;;;;;23.70;16.53;;;;;;;;;;5112368;28;20217;-75
2023/03/04 14:27:48;;;;;;;31.67;22.50;;;;;;;;;;5102040;28;20229;-77
2023/03/04 14:30:20;;;;;;;16.67;11.17;;;;;;;;;;5111118;28;20569;-76
2023/03/04 14:32:49;;;;;;;42.07;33.63;;;;;;;;;;5109872;28;20225;-76
2023/03/04 14:35:20;;;;;;;15.00;9.90;;;;;;;;;;5111469;28;20225;-77